createdAt,value
2023-02-12T00:02:23.430Z,5.40
2023-02-12T00:04:55.605Z,5.40
2023-02-12T00:07:31.269Z,5.40
2023-02-12T00:10:03.766Z,5.40
2023-02-12T00:12:36.253Z,5.30
2023-02-12T00:15:08.862Z,5.40
2023-02-12T00:17:40.854Z,5.40
2023-02-12T00:20:13.027Z,5.30
2023-02-12T00:22:45.004Z,5.30
2023-02-12T00:25:18.904Z,5.30
2023-02-12T00:27:51.062Z,5.30
2023-02-12T00:30:23.104Z,5.30
2023-02-12T00:32:55.253Z,5.30
2023-02-12T00:35:27.432Z,5.30
2023-02-12T00:37:59.444Z,5.40
2023-02-12T00:40:31.510Z,5.30
2023-02-12T00:43:03.692Z,5.40
2023-02-12T00:45:38.088Z,5.30
2023-02-12T00:48:23.447Z,5.30
2023-02-12T00:50:55.539Z,5.30
2023-02-12T00:53:27.872Z,5.30
2023-02-12T00:56:02.150Z,5.30
2023-02-12T00:58:34.650Z,5.30
2023-02-12T01:01:06.836Z,5.30
2023-02-12T01:03:39.189Z,5.30
2023-02-12T01:06:11.312Z,5.30
2023-02-12T01:08:43.332Z,5.40
2023-02-12T01:11:15.526Z,5.30
2023-02-12T01:13:48.031Z,5.30
2023-02-12T01:16:23.783Z,5.30
2023-02-12T01:18:56.357Z,5.30
2023-02-12T01:21:30.721Z,5.30
2023-02-12T01:24:05.202Z,5.30
2023-02-12T01:26:40.334Z,5.30
2023-02-12T01:29:12.392Z,5.30
2023-02-12T01:31:44.671Z,5.30
2023-02-12T01:34:16.965Z,5.30
2023-02-12T01:36:49.148Z,5.20
2023-02-12T01:39:21.248Z,5.30
2023-02-12T01:41:53.587Z,5.20
2023-02-12T01:44:30.152Z,5.30
2023-02-12T01:47:05.938Z,5.20
2023-02-12T01:49:40.184Z,5.20
2023-02-12T01:52:18.241Z,5.20
2023-02-12T01:54:59.137Z,5.20
2023-02-12T01:57:38.550Z,5.20
2023-02-12T02:00:20.092Z,5.20
2023-02-12T02:03:00.273Z,5.20
2023-02-12T02:05:55.925Z,5.20
2023-02-12T02:08:34.621Z,5.20
2023-02-12T02:11:27.021Z,5.20
2023-02-12T02:14:34.655Z,5.20
2023-02-12T02:17:13.312Z,5.20
2023-02-12T02:20:37.048Z,5.20
2023-02-12T02:23:37.893Z,5.20
2023-02-12T02:26:53.861Z,5.10
2023-02-12T02:30:03.899Z,5.10
2023-02-12T02:33:27.017Z,5.10
2023-02-12T02:36:59.208Z,5.20
2023-02-12T02:39:57.950Z,5.10
2023-02-12T02:42:43.899Z,5.10
2023-02-12T02:45:35.592Z,5.10
2023-02-12T02:48:29.297Z,5.10
2023-02-12T02:51:26.979Z,5.10
2023-02-12T02:54:22.021Z,5.10
2023-02-12T02:57:09.901Z,5.10
2023-02-12T03:00:03.955Z,5.10
2023-02-12T03:02:58.224Z,5.10
2023-02-12T03:05:39.957Z,5.10
2023-02-12T03:08:36.030Z,5.10
2023-02-12T03:11:27.647Z,5.10
2023-02-12T03:14:20.977Z,5.10
2023-02-12T03:17:10.306Z,5.10
2023-02-12T03:19:56.609Z,5.00
2023-02-12T03:22:43.197Z,5.10
2023-02-12T03:25:48.922Z,5.10
2023-02-12T03:28:32.019Z,5.10
2023-02-12T03:31:25.409Z,5.00
2023-02-12T03:34:41.281Z,5.00
2023-02-12T03:37:39.469Z,5.00
2023-02-12T03:40:21.932Z,5.00
2023-02-12T03:43:18.258Z,5.00
2023-02-12T03:46:00.991Z,5.00
2023-02-12T03:48:44.429Z,5.10
2023-02-12T03:51:42.738Z,5.10
2023-02-12T03:54:19.950Z,5.10
2023-02-12T03:57:15.822Z,5.10
2023-02-12T03:59:52.809Z,5.10
2023-02-12T04:02:25.974Z,5.10
2023-02-12T04:05:04.106Z,5.00
2023-02-12T04:07:37.741Z,5.00
2023-02-12T04:10:10.195Z,5.10
2023-02-12T04:13:02.711Z,5.00
2023-02-12T04:16:21.693Z,5.10
2023-02-12T04:19:01.602Z,5.10
2023-02-12T04:21:48.924Z,5.00
2023-02-12T04:25:02.695Z,5.00
2023-02-12T04:27:57.579Z,5.00
2023-02-12T04:31:04.724Z,5.00
2023-02-12T04:34:10.019Z,5.00
2023-02-12T04:37:10.562Z,5.00
2023-02-12T04:39:48.138Z,5.00
2023-02-12T04:42:21.127Z,5.00
2023-02-12T04:44:53.514Z,5.00
2023-02-12T04:47:26.381Z,5.00
2023-02-12T04:49:58.503Z,5.00
2023-02-12T04:52:30.573Z,4.90
2023-02-12T04:55:02.622Z,4.90
2023-02-12T04:57:34.796Z,4.90
2023-02-12T05:00:08.553Z,4.90
2023-02-12T05:02:43.794Z,4.90
2023-02-12T05:05:15.981Z,4.90
2023-02-12T05:07:48.535Z,4.90
2023-02-12T05:10:20.738Z,4.90
2023-02-12T05:12:53.745Z,4.90
2023-02-12T05:15:26.354Z,4.90
2023-02-12T05:17:58.399Z,4.90
2023-02-12T05:20:30.762Z,4.80
2023-02-12T05:23:02.786Z,4.80
2023-02-12T05:25:34.847Z,4.80
2023-02-12T05:28:06.952Z,4.80
2023-02-12T05:30:39.069Z,4.80
2023-02-12T05:33:11.020Z,4.80
2023-02-12T05:35:42.912Z,4.80
2023-02-12T05:38:14.970Z,4.80
2023-02-12T05:40:47.157Z,4.80
2023-02-12T05:43:19.090Z,4.80
2023-02-12T05:45:51.037Z,4.80
2023-02-12T05:48:23.019Z,4.80
2023-02-12T05:50:55.435Z,4.70
2023-02-12T05:53:38.394Z,4.70
2023-02-12T05:56:25.911Z,4.70
2023-02-12T05:59:08.872Z,4.70
2023-02-12T06:01:47.629Z,4.80
2023-02-12T06:04:25.022Z,4.80
2023-02-12T06:07:00.698Z,4.80
2023-02-12T06:09:33.090Z,4.80
2023-02-12T06:12:06.428Z,4.80
2023-02-12T06:14:41.052Z,4.80
2023-02-12T06:17:13.614Z,4.80
2023-02-12T06:19:45.656Z,4.80
2023-02-12T06:22:17.790Z,4.80
2023-02-12T06:24:49.894Z,4.80
2023-02-12T06:27:21.850Z,4.80
2023-02-12T06:29:53.794Z,4.80
2023-02-12T06:32:25.916Z,4.80
2023-02-12T06:34:57.905Z,4.80
2023-02-12T06:37:30.001Z,4.80
2023-02-12T06:40:03.533Z,4.80
2023-02-12T06:42:36.475Z,4.80
2023-02-12T06:45:08.999Z,4.80
2023-02-12T06:47:41.356Z,4.80
2023-02-12T06:50:13.406Z,4.70
2023-02-12T06:52:45.595Z,4.80
2023-02-12T06:55:18.091Z,4.80
2023-02-12T06:57:50.132Z,4.80
2023-02-12T07:00:22.602Z,4.80
2023-02-12T07:02:55.496Z,4.80
2023-02-12T07:05:28.348Z,4.80
2023-02-12T07:08:00.354Z,4.80
2023-02-12T07:10:32.390Z,4.80
2023-02-12T07:13:05.307Z,4.80
2023-02-12T07:15:40.926Z,4.80
2023-02-12T07:18:13.925Z,4.80
2023-02-12T07:20:45.938Z,4.90
2023-02-12T07:23:18.009Z,4.90
2023-02-12T07:26:01.175Z,4.90
2023-02-12T07:28:42.865Z,4.90
2023-02-12T07:31:20.380Z,4.90
2023-02-12T07:33:58.172Z,5.00
2023-02-12T07:36:32.859Z,5.00
2023-02-12T07:39:05.416Z,5.10
2023-02-12T07:41:37.548Z,5.10
2023-02-12T07:44:12.093Z,5.20
2023-02-12T07:46:48.504Z,5.30
2023-02-12T07:49:25.216Z,5.30
2023-02-12T07:51:57.487Z,5.40
2023-02-12T07:54:29.525Z,5.40
2023-02-12T07:57:02.239Z,5.40
2023-02-12T07:59:34.438Z,5.50
2023-02-12T08:02:07.023Z,5.50
2023-02-12T08:04:40.537Z,5.50
2023-02-12T08:07:12.818Z,5.60
2023-02-12T08:09:45.091Z,5.60
2023-02-12T08:12:18.402Z,5.60
2023-02-12T08:14:50.596Z,5.70
2023-02-12T08:17:22.666Z,5.70
2023-02-12T08:19:54.707Z,5.80
2023-02-12T08:22:26.784Z,5.80
2023-02-12T08:24:58.888Z,5.80
2023-02-12T08:27:31.417Z,5.80
2023-02-12T08:30:03.716Z,5.80
2023-02-12T08:32:36.296Z,5.90
2023-02-12T08:35:08.670Z,5.90
2023-02-12T08:37:40.803Z,5.90
2023-02-12T08:40:14.180Z,5.90
2023-02-12T08:42:46.300Z,5.90
2023-02-12T08:45:18.291Z,5.90
2023-02-12T08:47:50.298Z,5.90
2023-02-12T08:50:22.772Z,5.90
2023-02-12T08:52:54.947Z,6.00
2023-02-12T08:55:28.360Z,6.10
2023-02-12T08:58:01.335Z,6.10
2023-02-12T09:00:38.904Z,6.10
2023-02-12T09:03:12.596Z,6.20
2023-02-12T09:05:44.585Z,6.20
2023-02-12T09:08:17.052Z,6.30
2023-02-12T09:10:49.434Z,6.40
2023-02-12T09:13:21.669Z,6.40
2023-02-12T09:15:53.952Z,6.40
2023-02-12T09:18:26.200Z,6.50
2023-02-12T09:21:19.929Z,6.50
2023-02-12T09:23:52.589Z,6.60
2023-02-12T09:26:26.247Z,6.60
2023-02-12T09:29:06.114Z,6.60
2023-02-12T09:31:38.319Z,6.70
2023-02-12T09:34:10.556Z,6.70
2023-02-12T09:36:42.717Z,6.70
2023-02-12T09:39:14.861Z,6.80
2023-02-12T09:42:15.329Z,6.90
2023-02-12T09:45:18.392Z,7.00
2023-02-12T09:47:59.076Z,7.10
2023-02-12T09:51:00.668Z,7.20
2023-02-12T09:53:40.864Z,7.30
2023-02-12T09:56:22.318Z,7.30
2023-02-12T09:59:01.304Z,7.40
2023-02-12T10:01:37.174Z,7.50
2023-02-12T10:04:09.416Z,7.60
2023-02-12T10:06:56.497Z,7.70
2023-02-12T10:09:43.279Z,7.70
2023-02-12T10:12:45.794Z,7.80
2023-02-12T10:15:46.741Z,7.90
2023-02-12T10:18:51.978Z,8.00
2023-02-12T10:22:13.676Z,8.10
2023-02-12T10:25:24.615Z,8.10
2023-02-12T10:28:39.904Z,8.20
2023-02-12T10:31:34.072Z,8.30
2023-02-12T10:34:34.942Z,8.30
2023-02-12T10:37:22.046Z,8.40
2023-02-12T10:40:16.284Z,8.50
2023-02-12T10:42:54.350Z,8.50
2023-02-12T10:45:38.029Z,8.60
2023-02-12T10:48:32.906Z,8.60
2023-02-12T10:51:08.957Z,8.60
2023-02-12T10:54:39.178Z,8.60
2023-02-12T10:57:18.113Z,8.70
2023-02-12T10:59:57.210Z,8.70
2023-02-12T11:03:20.286Z,8.70
2023-02-12T11:05:54.506Z,8.70
2023-02-12T11:08:38.840Z,8.70
2023-02-12T11:11:30.770Z,8.80
2023-02-12T11:14:22.932Z,8.80
2023-02-12T11:17:02.724Z,8.80
2023-02-12T11:19:36.360Z,8.80
2023-02-12T11:22:18.788Z,8.70
2023-02-12T11:25:02.596Z,8.80
2023-02-12T11:27:45.602Z,8.80
2023-02-12T11:30:32.254Z,8.80
2023-02-12T11:33:22.997Z,8.80
2023-02-12T11:36:28.789Z,8.90
2023-02-12T11:39:02.866Z,9.00
2023-02-12T11:41:40.821Z,9.00
2023-02-12T11:44:38.252Z,9.00
2023-02-12T11:47:22.067Z,9.00
2023-02-12T11:50:17.414Z,9.00
2023-02-12T11:53:07.349Z,9.10
2023-02-12T11:55:41.507Z,9.20
2023-02-12T11:58:26.950Z,9.20
2023-02-12T12:01:04.773Z,9.20
2023-02-12T12:04:02.537Z,9.20
2023-02-12T12:07:12.070Z,9.20
2023-02-12T12:10:03.862Z,9.20
2023-02-12T12:12:43.601Z,9.30
2023-02-12T12:15:53.296Z,9.30
2023-02-12T12:19:15.482Z,9.40
2023-02-12T12:22:21.693Z,9.40
2023-02-12T12:25:19.144Z,9.40
2023-02-12T12:28:30.807Z,9.40
2023-02-12T12:31:19.530Z,9.50
2023-02-12T12:34:18.733Z,9.50
2023-02-12T12:37:18.167Z,9.60
2023-02-12T12:40:29.440Z,9.80
2023-02-12T12:43:13.854Z,9.90
2023-02-12T12:46:23.951Z,10.00
2023-02-12T12:49:38.495Z,10.10
2023-02-12T12:53:00.711Z,10.20
2023-02-12T12:55:54.655Z,10.10
2023-02-12T12:58:55.671Z,10.10
2023-02-12T13:01:47.613Z,10.10
2023-02-12T13:05:17.168Z,10.10
2023-02-12T13:08:54.267Z,10.20
2023-02-12T13:11:57.511Z,10.30
2023-02-12T13:15:17.198Z,10.50
2023-02-12T13:18:35.354Z,10.70
2023-02-12T13:21:54.990Z,10.90
2023-02-12T13:24:57.318Z,11.10
2023-02-12T13:28:00.613Z,11.40
2023-02-12T13:30:39.771Z,11.70
2023-02-12T13:33:27.539Z,11.90
2023-02-12T13:36:10.644Z,11.90
2023-02-12T13:39:10.464Z,11.90
2023-02-12T13:42:06.056Z,11.80
2023-02-12T13:45:18.267Z,12.00
2023-02-12T13:48:22.258Z,12.30
2023-02-12T13:51:32.727Z,12.60
2023-02-12T13:54:40.857Z,12.80
2023-02-12T13:57:26.749Z,13.00
2023-02-12T14:00:00.002Z,13.20
2023-02-12T14:02:37.309Z,13.30
2023-02-12T14:05:42.792Z,13.30
2023-02-12T14:08:37.842Z,13.30
2023-02-12T14:11:16.743Z,13.30
2023-02-12T14:14:03.176Z,13.20
2023-02-12T14:16:40.567Z,13.00
2023-02-12T14:19:40.743Z,12.90
2023-02-12T14:22:32.574Z,12.80
2023-02-12T14:25:24.577Z,12.60
2023-02-12T14:28:10.342Z,12.40
2023-02-12T14:31:39.172Z,12.20
2023-02-12T14:34:12.048Z,12.10
2023-02-12T14:37:31.623Z,11.90
2023-02-12T14:40:34.011Z,11.60
2023-02-12T14:43:29.241Z,11.40
2023-02-12T14:46:25.177Z,11.20
2023-02-12T14:49:33.272Z,11.10
2023-02-12T14:52:13.218Z,11.00
2023-02-12T14:55:00.875Z,11.00
2023-02-12T14:57:38.599Z,11.00
2023-02-12T15:00:25.796Z,10.90
2023-02-12T15:03:37.122Z,10.90
2023-02-12T15:06:19.026Z,10.80
2023-02-12T15:09:03.481Z,10.80
2023-02-12T15:11:57.696Z,10.70
2023-02-12T15:14:46.014Z,10.70
2023-02-12T15:17:31.064Z,10.60
2023-02-12T15:20:34.787Z,10.60
2023-02-12T15:23:34.423Z,10.60
2023-02-12T15:26:23.082Z,10.60
2023-02-12T15:28:56.822Z,10.60
2023-02-12T15:31:30.985Z,10.60
2023-02-12T15:34:05.962Z,10.60
2023-02-12T15:36:38.925Z,10.60
2023-02-12T15:39:20.988Z,10.60
2023-02-12T15:41:55.295Z,10.50
2023-02-12T15:44:33.143Z,10.50
2023-02-12T15:47:12.797Z,10.40
2023-02-12T15:49:46.240Z,10.30
2023-02-12T15:52:21.927Z,10.20
2023-02-12T15:55:05.612Z,10.20
2023-02-12T15:57:57.976Z,10.10
2023-02-12T16:00:46.349Z,9.90
2023-02-12T16:03:27.914Z,9.80
2023-02-12T16:06:15.012Z,9.60
2023-02-12T16:08:53.309Z,9.50
2023-02-12T16:11:31.862Z,9.40
2023-02-12T16:14:08.206Z,9.30
2023-02-12T16:16:55.322Z,9.20
2023-02-12T16:19:33.033Z,9.10
2023-02-12T16:22:14.571Z,9.10
2023-02-12T16:24:56.549Z,9.00
2023-02-12T16:27:34.694Z,8.90
2023-02-12T16:30:27.235Z,8.80
2023-02-12T16:33:03.881Z,8.80
2023-02-12T16:35:37.325Z,8.70
2023-02-12T16:38:27.905Z,8.60
2023-02-12T16:41:21.082Z,8.50
2023-02-12T16:44:02.401Z,8.50
2023-02-12T16:46:56.940Z,8.40
2023-02-12T16:49:31.239Z,8.30
2023-02-12T16:52:27.881Z,8.30
2023-02-12T16:55:15.096Z,8.30
2023-02-12T16:57:48.863Z,8.20
2023-02-12T17:00:22.831Z,8.10
2023-02-12T17:02:56.970Z,8.00
2023-02-12T17:05:29.439Z,8.00
2023-02-12T17:08:02.740Z,7.90
2023-02-12T17:10:36.956Z,7.90
2023-02-12T17:13:10.069Z,7.80
2023-02-12T17:15:48.013Z,7.70
2023-02-12T17:18:33.002Z,7.60
2023-02-12T17:21:29.108Z,7.60
2023-02-12T17:24:32.045Z,7.50
2023-02-12T17:27:10.216Z,7.50
2023-02-12T17:29:45.480Z,7.40
2023-02-12T17:32:18.166Z,7.40
2023-02-12T17:34:51.094Z,7.30
2023-02-12T17:37:24.702Z,7.20
2023-02-12T17:39:57.236Z,7.20
2023-02-12T17:42:29.318Z,7.20
2023-02-12T17:45:01.638Z,7.10
2023-02-12T17:47:39.809Z,7.10
2023-02-12T17:50:15.045Z,7.00
2023-02-12T17:52:47.931Z,7.00
2023-02-12T17:55:21.974Z,6.90
2023-02-12T17:57:55.739Z,6.80
2023-02-12T18:00:30.703Z,6.80
2023-02-12T18:03:04.122Z,6.70
2023-02-12T18:05:44.082Z,6.70
2023-02-12T18:08:16.707Z,6.60
2023-02-12T18:10:49.246Z,6.60
2023-02-12T18:13:22.181Z,6.50
2023-02-12T18:15:56.016Z,6.50
2023-02-12T18:18:28.604Z,6.50
2023-02-12T18:21:10.637Z,6.50
2023-02-12T18:23:46.492Z,6.40
2023-02-12T18:26:19.522Z,6.30
2023-02-12T18:28:53.790Z,6.20
2023-02-12T18:31:29.404Z,6.20
2023-02-12T18:34:02.844Z,6.10
2023-02-12T18:36:36.486Z,6.00
2023-02-12T18:39:09.067Z,5.90
2023-02-12T18:41:41.483Z,5.80
2023-02-12T18:44:15.156Z,5.70
2023-02-12T18:46:48.136Z,5.60
2023-02-12T18:49:21.379Z,5.50
2023-02-12T18:51:54.035Z,5.40
2023-02-12T18:54:27.171Z,5.30
2023-02-12T18:57:00.208Z,5.30
2023-02-12T18:59:33.391Z,5.20
2023-02-12T19:02:06.896Z,5.10
2023-02-12T19:04:43.079Z,5.10
2023-02-12T19:07:16.270Z,5.00
2023-02-12T19:09:48.985Z,5.00
2023-02-12T19:12:22.556Z,4.90
2023-02-12T19:14:57.261Z,4.90
2023-02-12T19:17:30.452Z,4.80
2023-02-12T19:20:03.297Z,4.70
2023-02-12T19:22:36.794Z,4.70
2023-02-12T19:25:11.741Z,4.60
2023-02-12T19:27:45.367Z,4.50
2023-02-12T19:30:18.387Z,4.50
2023-02-12T19:32:52.192Z,4.50
2023-02-12T19:35:25.034Z,4.40
2023-02-12T19:37:58.272Z,4.40
2023-02-12T19:40:32.694Z,4.30
2023-02-12T19:43:06.539Z,4.30
2023-02-12T19:45:40.168Z,4.30
2023-02-12T19:48:13.083Z,4.30
2023-02-12T19:50:47.265Z,4.30
2023-02-12T19:53:20.229Z,4.30
2023-02-12T19:55:53.602Z,4.20
2023-02-12T19:58:29.074Z,4.20
2023-02-12T20:01:07.255Z,4.20
2023-02-12T20:03:44.043Z,4.30
2023-02-12T20:06:30.303Z,4.30
2023-02-12T20:09:09.048Z,4.30
2023-02-12T20:11:44.179Z,4.40
2023-02-12T20:14:18.221Z,4.30
2023-02-12T20:16:55.824Z,4.30
2023-02-12T20:19:32.876Z,4.30
2023-02-12T20:22:06.947Z,4.30
2023-02-12T20:24:40.491Z,4.30
2023-02-12T20:27:13.939Z,4.30
2023-02-12T20:29:47.661Z,4.30
2023-02-12T20:32:20.575Z,4.30
2023-02-12T20:34:53.715Z,4.30
2023-02-12T20:37:27.389Z,4.30
2023-02-12T20:40:00.882Z,4.30
2023-02-12T20:42:35.014Z,4.30
2023-02-12T20:45:09.762Z,4.30
2023-02-12T20:47:42.742Z,4.30
2023-02-12T20:50:16.891Z,4.30
2023-02-12T20:52:50.612Z,4.20
2023-02-12T20:55:23.706Z,4.20
2023-02-12T20:57:56.752Z,4.20
2023-02-12T21:00:30.367Z,4.10
2023-02-12T21:03:04.934Z,4.10
2023-02-12T21:05:38.749Z,4.00
2023-02-12T21:08:12.001Z,3.90
2023-02-12T21:10:44.847Z,3.90
2023-02-12T21:13:17.523Z,3.90
2023-02-12T21:15:50.071Z,3.80
2023-02-12T21:18:25.676Z,3.80
2023-02-12T21:21:03.374Z,3.80
2023-02-12T21:23:38.689Z,3.70
2023-02-12T21:26:17.260Z,3.70
2023-02-12T21:28:52.070Z,3.70
2023-02-12T21:31:33.874Z,3.60
2023-02-12T21:34:12.785Z,3.60
2023-02-12T21:36:48.905Z,3.60
2023-02-12T21:39:27.423Z,3.50
2023-02-12T21:42:02.929Z,3.50
2023-02-12T21:44:36.440Z,3.40
2023-02-12T21:47:10.157Z,3.40
2023-02-12T21:49:42.276Z,3.40
2023-02-12T21:52:14.431Z,3.30
2023-02-12T21:54:47.471Z,3.30
2023-02-12T21:57:21.847Z,3.30
2023-02-12T21:59:54.036Z,3.20
2023-02-12T22:02:26.105Z,3.20
2023-02-12T22:04:58.306Z,3.20
2023-02-12T22:07:30.453Z,3.20
2023-02-12T22:10:02.673Z,3.10
2023-02-12T22:12:39.057Z,3.10
2023-02-12T22:15:11.142Z,3.10
2023-02-12T22:17:43.393Z,3.10
2023-02-12T22:20:24.603Z,3.00
2023-02-12T22:22:56.949Z,3.00
2023-02-12T22:25:29.159Z,3.00
2023-02-12T22:28:01.345Z,2.90
2023-02-12T22:30:33.638Z,2.90
2023-02-12T22:33:06.522Z,2.90
2023-02-12T22:35:38.692Z,2.90
2023-02-12T22:38:10.883Z,2.80
2023-02-12T22:40:44.004Z,2.80
2023-02-12T22:43:16.054Z,2.80
2023-02-12T22:45:48.131Z,2.70
2023-02-12T22:48:20.560Z,2.70
2023-02-12T22:50:52.609Z,2.70
2023-02-12T22:53:26.416Z,2.70
2023-02-12T22:56:03.688Z,2.60
2023-02-12T22:58:38.633Z,2.60
2023-02-12T23:01:30.337Z,2.50
2023-02-12T23:04:02.602Z,2.40
2023-02-12T23:06:34.821Z,2.40
2023-02-12T23:09:06.891Z,2.40
2023-02-12T23:11:42.854Z,2.40
2023-02-12T23:14:15.403Z,2.40
2023-02-12T23:16:48.232Z,2.30
2023-02-12T23:19:20.457Z,2.20
2023-02-12T23:21:52.649Z,2.20
2023-02-12T23:24:25.862Z,2.20
2023-02-12T23:26:58.035Z,2.10
2023-02-12T23:29:30.345Z,2.10
2023-02-12T23:32:02.581Z,2.10
2023-02-12T23:34:34.942Z,2.10
2023-02-12T23:37:07.087Z,2.10
2023-02-12T23:39:39.305Z,2.10
2023-02-12T23:42:37.490Z,2.10
2023-02-12T23:45:10.023Z,2.00
2023-02-12T23:47:42.166Z,2.00
2023-02-12T23:50:14.153Z,2.00
2023-02-12T23:52:46.600Z,2.00
2023-02-12T23:55:20.299Z,1.90
2023-02-12T23:57:52.405Z,1.90
